Terminal Aerodrome Forecast
Issued by NWS

Home | Current Version | Previous Version | Text Only | Print | Product List | Glossary On
Versions: 1 2 3 4 5 6 7 8 9 10 11 12 13 14 15 16 17 18 19
000
FTUS43 KLSX 251700
TAFSUS
TAF
KSUS 251738Z 2518/2618 19006KT P6SM VCTS BKN020CB
      TEMPO 2518/2522 5SM -SHRA OVC018
     FM252200 34012KT 5SM -RA BR OVC012
     FM260100 01012KT P6SM OVC007
     FM261300 05010KT P6SM BKN035=

USA.gov is the U.S. government's official web portal to all federal, state and local government web resources and services.